sensor_id;sensor_type;location;lat;lon;timestamp;P1;durP1;ratioP1;P2;durP2;ratioP2
57744;SDS011;58941;50.168;4.410;2024-02-26T00:00:13;1.52;;;0.90;;
57744;SDS011;58941;50.168;4.410;2024-02-26T00:02:38;1.35;;;0.88;;
57744;SDS011;58941;50.168;4.410;2024-02-26T00:05:08;1.25;;;0.80;;
57744;SDS011;58941;50.168;4.410;2024-02-26T00:07:33;1.17;;;0.80;;
57744;SDS011;58941;50.168;4.410;2024-02-26T00:09:59;1.67;;;0.90;;
57744;SDS011;58941;50.168;4.410;2024-02-26T00:12:24;1.20;;;1.08;;
57744;SDS011;58941;50.168;4.410;2024-02-26T00:14:50;0.90;;;0.70;;
57744;SDS011;58941;50.168;4.410;2024-02-26T00:17:15;1.25;;;1.00;;
57744;SDS011;58941;50.168;4.410;2024-02-26T00:19:41;1.08;;;0.90;;
57744;SDS011;58941;50.168;4.410;2024-02-26T00:22:06;1.10;;;0.80;;
57744;SDS011;58941;50.168;4.410;2024-02-26T00:24:32;1.10;;;0.80;;
57744;SDS011;58941;50.168;4.410;2024-02-26T00:26:58;1.88;;;0.88;;
57744;SDS011;58941;50.168;4.410;2024-02-26T00:29:24;1.70;;;0.90;;
57744;SDS011;58941;50.168;4.410;2024-02-26T00:31:50;1.33;;;1.00;;
57744;SDS011;58941;50.168;4.410;2024-02-26T00:34:16;1.13;;;0.90;;
57744;SDS011;58941;50.168;4.410;2024-02-26T00:36:41;1.50;;;1.00;;
57744;SDS011;58941;50.168;4.410;2024-02-26T00:39:07;0.98;;;0.60;;
57744;SDS011;58941;50.168;4.410;2024-02-26T00:41:32;1.67;;;0.90;;
57744;SDS011;58941;50.168;4.410;2024-02-26T00:43:58;0.75;;;0.75;;
57744;SDS011;58941;50.168;4.410;2024-02-26T00:46:23;1.60;;;1.00;;
57744;SDS011;58941;50.168;4.410;2024-02-26T00:48:49;1.95;;;0.90;;
57744;SDS011;58941;50.168;4.410;2024-02-26T00:51:14;1.10;;;0.77;;
57744;SDS011;58941;50.168;4.410;2024-02-26T00:53:40;1.02;;;0.90;;
57744;SDS011;58941;50.168;4.410;2024-02-26T00:56:06;1.23;;;0.90;;
57744;SDS011;58941;50.168;4.410;2024-02-26T00:58:31;1.08;;;0.82;;
57744;SDS011;58941;50.168;4.410;2024-02-26T01:00:58;0.70;;;0.70;;
57744;SDS011;58941;50.168;4.410;2024-02-26T01:03:23;2.05;;;0.80;;
57744;SDS011;58941;50.168;4.410;2024-02-26T01:05:49;0.77;;;0.73;;
57744;SDS011;58941;50.168;4.410;2024-02-26T01:08:14;1.10;;;0.98;;
57744;SDS011;58941;50.168;4.410;2024-02-26T01:10:40;1.50;;;0.80;;
57744;SDS011;58941;50.168;4.410;2024-02-26T01:13:05;1.17;;;0.80;;
57744;SDS011;58941;50.168;4.410;2024-02-26T01:15:32;1.55;;;0.70;;
57744;SDS011;58941;50.168;4.410;2024-02-26T01:17:58;1.05;;;0.80;;
57744;SDS011;58941;50.168;4.410;2024-02-26T01:20:23;1.92;;;1.20;;
57744;SDS011;58941;50.168;4.410;2024-02-26T01:22:49;0.90;;;0.73;;
57744;SDS011;58941;50.168;4.410;2024-02-26T01:25:14;1.17;;;0.75;;
57744;SDS011;58941;50.168;4.410;2024-02-26T01:27:41;1.70;;;1.00;;
57744;SDS011;58941;50.168;4.410;2024-02-26T01:30:08;0.88;;;0.88;;
57744;SDS011;58941;50.168;4.410;2024-02-26T01:32:33;2.28;;;0.98;;
57744;SDS011;58941;50.168;4.410;2024-02-26T01:34:59;1.17;;;0.80;;
57744;SDS011;58941;50.168;4.410;2024-02-26T01:37:24;2.30;;;0.85;;
57744;SDS011;58941;50.168;4.410;2024-02-26T01:39:50;1.15;;;0.90;;
57744;SDS011;58941;50.168;4.410;2024-02-26T01:42:15;0.88;;;0.63;;
57744;SDS011;58941;50.168;4.410;2024-02-26T01:44:40;0.80;;;0.80;;
57744;SDS011;58941;50.168;4.410;2024-02-26T01:47:07;1.17;;;1.00;;
57744;SDS011;58941;50.168;4.410;2024-02-26T01:49:33;1.20;;;1.10;;
57744;SDS011;58941;50.168;4.410;2024-02-26T01:52:00;1.38;;;0.90;;
57744;SDS011;58941;50.168;4.410;2024-02-26T01:54:27;1.20;;;0.90;;
57744;SDS011;58941;50.168;4.410;2024-02-26T01:56:52;1.23;;;0.90;;
57744;SDS011;58941;50.168;4.410;2024-02-26T01:59:18;1.35;;;0.80;;
57744;SDS011;58941;50.168;4.410;2024-02-26T02:01:44;1.90;;;0.80;;
57744;SDS011;58941;50.168;4.410;2024-02-26T02:04:11;1.67;;;0.98;;
57744;SDS011;58941;50.168;4.410;2024-02-26T02:06:36;0.73;;;0.73;;
57744;SDS011;58941;50.168;4.410;2024-02-26T02:09:03;0.77;;;0.73;;
57744;SDS011;58941;50.168;4.410;2024-02-26T02:11:32;1.95;;;1.00;;
57744;SDS011;58941;50.168;4.410;2024-02-26T02:13:58;1.08;;;0.80;;
57744;SDS011;58941;50.168;4.410;2024-02-26T02:16:24;1.00;;;0.80;;
57744;SDS011;58941;50.168;4.410;2024-02-26T02:18:49;1.00;;;0.70;;
57744;SDS011;58941;50.168;4.410;2024-02-26T02:21:15;1.00;;;0.90;;
57744;SDS011;58941;50.168;4.410;2024-02-26T02:23:40;0.95;;;0.82;;
57744;SDS011;58941;50.168;4.410;2024-02-26T02:26:11;0.77;;;0.73;;
57744;SDS011;58941;50.168;4.410;2024-02-26T02:28:36;1.30;;;0.77;;
57744;SDS011;58941;50.168;4.410;2024-02-26T02:31:02;1.25;;;0.80;;
57744;SDS011;58941;50.168;4.410;2024-02-26T02:33:29;0.98;;;0.80;;
57744;SDS011;58941;50.168;4.410;2024-02-26T02:35:54;1.05;;;0.68;;
57744;SDS011;58941;50.168;4.410;2024-02-26T02:38:20;1.00;;;0.90;;
57744;SDS011;58941;50.168;4.410;2024-02-26T02:40:46;1.10;;;0.82;;
57744;SDS011;58941;50.168;4.410;2024-02-26T02:43:11;1.73;;;0.90;;
57744;SDS011;58941;50.168;4.410;2024-02-26T02:45:37;2.08;;;0.80;;
57744;SDS011;58941;50.168;4.410;2024-02-26T02:48:02;0.98;;;0.88;;
57744;SDS011;58941;50.168;4.410;2024-02-26T02:50:28;1.45;;;0.68;;
57744;SDS011;58941;50.168;4.410;2024-02-26T02:52:54;1.95;;;0.85;;
57744;SDS011;58941;50.168;4.410;2024-02-26T02:55:20;1.85;;;0.75;;
57744;SDS011;58941;50.168;4.410;2024-02-26T02:57:45;1.27;;;0.75;;
57744;SDS011;58941;50.168;4.410;2024-02-26T03:00:11;1.02;;;0.77;;
57744;SDS011;58941;50.168;4.410;2024-02-26T03:02:36;1.33;;;0.90;;
57744;SDS011;58941;50.168;4.410;2024-02-26T03:05:02;1.00;;;0.80;;
57744;SDS011;58941;50.168;4.410;2024-02-26T03:07:28;0.85;;;0.82;;
57744;SDS011;58941;50.168;4.410;2024-02-26T03:09:54;1.20;;;1.00;;
57744;SDS011;58941;50.168;4.410;2024-02-26T03:12:19;1.15;;;0.80;;
57744;SDS011;58941;50.168;4.410;2024-02-26T03:14:45;1.42;;;0.90;;
57744;SDS011;58941;50.168;4.410;2024-02-26T03:17:10;1.63;;;0.80;;
57744;SDS011;58941;50.168;4.410;2024-02-26T03:19:36;2.10;;;0.77;;
57744;SDS011;58941;50.168;4.410;2024-02-26T03:22:01;1.52;;;0.88;;
57744;SDS011;58941;50.168;4.410;2024-02-26T03:24:27;1.13;;;0.90;;
57744;SDS011;58941;50.168;4.410;2024-02-26T03:26:53;1.00;;;0.80;;
57744;SDS011;58941;50.168;4.410;2024-02-26T03:29:19;1.08;;;0.82;;
57744;SDS011;58941;50.168;4.410;2024-02-26T03:31:44;1.15;;;0.93;;
57744;SDS011;58941;50.168;4.410;2024-02-26T03:34:09;1.38;;;0.60;;
57744;SDS011;58941;50.168;4.410;2024-02-26T03:36:37;1.00;;;0.70;;
57744;SDS011;58941;50.168;4.410;2024-02-26T03:39:02;0.77;;;0.77;;
57744;SDS011;58941;50.168;4.410;2024-02-26T03:41:33;1.08;;;0.70;;
57744;SDS011;58941;50.168;4.410;2024-02-26T03:43:58;0.70;;;0.60;;
57744;SDS011;58941;50.168;4.410;2024-02-26T03:46:24;1.23;;;0.88;;
57744;SDS011;58941;50.168;4.410;2024-02-26T03:48:49;0.70;;;0.70;;
57744;SDS011;58941;50.168;4.410;2024-02-26T03:51:15;1.60;;;0.95;;
57744;SDS011;58941;50.168;4.410;2024-02-26T03:53:40;1.42;;;0.77;;
57744;SDS011;58941;50.168;4.410;2024-02-26T03:56:06;0.80;;;0.70;;
57744;SDS011;58941;50.168;4.410;2024-02-26T03:58:31;1.77;;;0.90;;
57744;SDS011;58941;50.168;4.410;2024-02-26T04:00:57;0.70;;;0.63;;
57744;SDS011;58941;50.168;4.410;2024-02-26T04:03:22;0.80;;;0.57;;
57744;SDS011;58941;50.168;4.410;2024-02-26T04:05:48;1.05;;;0.80;;
57744;SDS011;58941;50.168;4.410;2024-02-26T04:08:13;1.90;;;0.88;;
57744;SDS011;58941;50.168;4.410;2024-02-26T04:10:39;0.95;;;0.80;;
57744;SDS011;58941;50.168;4.410;2024-02-26T04:13:05;0.70;;;0.70;;
57744;SDS011;58941;50.168;4.410;2024-02-26T04:15:31;0.70;;;0.60;;
57744;SDS011;58941;50.168;4.410;2024-02-26T04:17:57;0.90;;;0.65;;
57744;SDS011;58941;50.168;4.410;2024-02-26T04:20:22;0.65;;;0.65;;
57744;SDS011;58941;50.168;4.410;2024-02-26T04:22:48;0.93;;;0.77;;
57744;SDS011;58941;50.168;4.410;2024-02-26T04:25:13;1.40;;;0.80;;
57744;SDS011;58941;50.168;4.410;2024-02-26T04:27:39;1.17;;;0.80;;
57744;SDS011;58941;50.168;4.410;2024-02-26T04:30:05;1.42;;;0.88;;
57744;SDS011;58941;50.168;4.410;2024-02-26T04:32:32;1.73;;;0.70;;
57744;SDS011;58941;50.168;4.410;2024-02-26T04:34:59;1.02;;;0.90;;
57744;SDS011;58941;50.168;4.410;2024-02-26T04:37:25;0.90;;;0.80;;
57744;SDS011;58941;50.168;4.410;2024-02-26T04:39:59;1.63;;;0.77;;
57744;SDS011;58941;50.168;4.410;2024-02-26T04:42:24;1.35;;;0.80;;
57744;SDS011;58941;50.168;4.410;2024-02-26T04:44:50;1.17;;;0.70;;
57744;SDS011;58941;50.168;4.410;2024-02-26T04:47:15;1.60;;;0.82;;
57744;SDS011;58941;50.168;4.410;2024-02-26T04:49:41;1.20;;;0.70;;
57744;SDS011;58941;50.168;4.410;2024-02-26T04:52:06;1.15;;;0.82;;
57744;SDS011;58941;50.168;4.410;2024-02-26T04:54:32;0.95;;;0.68;;
57744;SDS011;58941;50.168;4.410;2024-02-26T04:56:57;0.70;;;0.70;;
57744;SDS011;58941;50.168;4.410;2024-02-26T04:59:22;1.45;;;0.80;;
57744;SDS011;58941;50.168;4.410;2024-02-26T05:01:48;1.75;;;0.80;;
57744;SDS011;58941;50.168;4.410;2024-02-26T05:04:13;0.82;;;0.80;;
57744;SDS011;58941;50.168;4.410;2024-02-26T05:06:39;0.73;;;0.73;;
57744;SDS011;58941;50.168;4.410;2024-02-26T05:09:04;1.75;;;0.80;;
57744;SDS011;58941;50.168;4.410;2024-02-26T05:11:30;1.08;;;0.82;;
57744;SDS011;58941;50.168;4.410;2024-02-26T05:13:55;0.80;;;0.80;;
57744;SDS011;58941;50.168;4.410;2024-02-26T05:16:21;2.00;;;1.00;;
57744;SDS011;58941;50.168;4.410;2024-02-26T05:18:49;1.17;;;0.90;;
57744;SDS011;58941;50.168;4.410;2024-02-26T05:21:15;1.20;;;0.70;;
57744;SDS011;58941;50.168;4.410;2024-02-26T05:23:40;0.90;;;0.75;;
57744;SDS011;58941;50.168;4.410;2024-02-26T05:26:09;1.17;;;0.90;;
57744;SDS011;58941;50.168;4.410;2024-02-26T05:28:34;0.85;;;0.70;;
57744;SDS011;58941;50.168;4.410;2024-02-26T05:31:00;0.80;;;0.80;;
57744;SDS011;58941;50.168;4.410;2024-02-26T05:33:25;0.65;;;0.60;;
57744;SDS011;58941;50.168;4.410;2024-02-26T05:35:51;0.95;;;0.75;;
57744;SDS011;58941;50.168;4.410;2024-02-26T05:38:16;1.35;;;0.75;;
57744;SDS011;58941;50.168;4.410;2024-02-26T05:40:42;1.05;;;0.85;;
57744;SDS011;58941;50.168;4.410;2024-02-26T05:43:07;1.05;;;0.80;;
57744;SDS011;58941;50.168;4.410;2024-02-26T05:45:32;1.63;;;0.77;;
57744;SDS011;58941;50.168;4.410;2024-02-26T05:47:58;1.30;;;0.77;;
57744;SDS011;58941;50.168;4.410;2024-02-26T05:50:24;0.82;;;0.70;;
57744;SDS011;58941;50.168;4.410;2024-02-26T05:52:49;1.05;;;0.60;;
57744;SDS011;58941;50.168;4.410;2024-02-26T05:55:14;1.10;;;0.80;;
57744;SDS011;58941;50.168;4.410;2024-02-26T05:57:40;0.85;;;0.70;;
57744;SDS011;58941;50.168;4.410;2024-02-26T06:00:06;1.42;;;0.90;;
57744;SDS011;58941;50.168;4.410;2024-02-26T06:02:32;1.00;;;0.80;;
57744;SDS011;58941;50.168;4.410;2024-02-26T06:04:57;0.80;;;0.63;;
57744;SDS011;58941;50.168;4.410;2024-02-26T06:07:23;1.25;;;0.80;;
57744;SDS011;58941;50.168;4.410;2024-02-26T06:09:48;1.00;;;0.80;;
57744;SDS011;58941;50.168;4.410;2024-02-26T06:12:14;0.85;;;0.85;;
57744;SDS011;58941;50.168;4.410;2024-02-26T06:14:39;0.95;;;0.80;;
57744;SDS011;58941;50.168;4.410;2024-02-26T06:17:05;1.10;;;0.80;;
57744;SDS011;58941;50.168;4.410;2024-02-26T06:19:32;0.90;;;0.70;;
57744;SDS011;58941;50.168;4.410;2024-02-26T06:21:57;0.90;;;0.75;;
57744;SDS011;58941;50.168;4.410;2024-02-26T06:24:23;0.70;;;0.60;;
57744;SDS011;58941;50.168;4.410;2024-02-26T06:26:48;1.35;;;0.80;;
57744;SDS011;58941;50.168;4.410;2024-02-26T06:29:14;0.80;;;0.80;;
57744;SDS011;58941;50.168;4.410;2024-02-26T06:31:40;0.98;;;0.63;;
57744;SDS011;58941;50.168;4.410;2024-02-26T06:34:05;0.85;;;0.80;;
57744;SDS011;58941;50.168;4.410;2024-02-26T06:36:31;1.40;;;0.77;;
57744;SDS011;58941;50.168;4.410;2024-02-26T06:38:57;0.80;;;0.80;;
57744;SDS011;58941;50.168;4.410;2024-02-26T06:41:22;1.02;;;0.80;;
57744;SDS011;58941;50.168;4.410;2024-02-26T06:43:55;1.13;;;0.80;;
57744;SDS011;58941;50.168;4.410;2024-02-26T06:46:21;0.98;;;0.77;;
57744;SDS011;58941;50.168;4.410;2024-02-26T06:48:47;1.02;;;0.90;;
57744;SDS011;58941;50.168;4.410;2024-02-26T06:51:13;0.93;;;0.73;;
57744;SDS011;58941;50.168;4.410;2024-02-26T06:53:38;0.90;;;0.80;;
57744;SDS011;58941;50.168;4.410;2024-02-26T06:56:04;1.75;;;1.20;;
57744;SDS011;58941;50.168;4.410;2024-02-26T06:58:29;1.13;;;0.88;;
57744;SDS011;58941;50.168;4.410;2024-02-26T07:00:54;1.00;;;0.85;;
57744;SDS011;58941;50.168;4.410;2024-02-26T07:03:20;2.03;;;1.30;;
57744;SDS011;58941;50.168;4.410;2024-02-26T07:05:48;0.65;;;0.60;;
57744;SDS011;58941;50.168;4.410;2024-02-26T07:08:13;0.95;;;0.95;;
57744;SDS011;58941;50.168;4.410;2024-02-26T07:10:39;0.75;;;0.75;;
57744;SDS011;58941;50.168;4.410;2024-02-26T07:13:04;1.10;;;0.80;;
57744;SDS011;58941;50.168;4.410;2024-02-26T07:15:30;0.70;;;0.70;;
57744;SDS011;58941;50.168;4.410;2024-02-26T07:17:55;1.63;;;0.90;;
57744;SDS011;58941;50.168;4.410;2024-02-26T07:20:21;0.82;;;0.73;;
57744;SDS011;58941;50.168;4.410;2024-02-26T07:22:47;1.42;;;0.70;;
57744;SDS011;58941;50.168;4.410;2024-02-26T07:25:12;1.05;;;0.70;;
57744;SDS011;58941;50.168;4.410;2024-02-26T07:27:41;1.13;;;0.80;;
57744;SDS011;58941;50.168;4.410;2024-02-26T07:30:07;0.80;;;0.80;;
57744;SDS011;58941;50.168;4.410;2024-02-26T07:32:33;0.85;;;0.60;;
57744;SDS011;58941;50.168;4.410;2024-02-26T07:34:58;1.27;;;0.93;;
57744;SDS011;58941;50.168;4.410;2024-02-26T07:37:24;2.20;;;0.80;;
57744;SDS011;58941;50.168;4.410;2024-02-26T07:39:50;0.85;;;0.80;;
57744;SDS011;58941;50.168;4.410;2024-02-26T07:42:15;2.13;;;0.80;;
57744;SDS011;58941;50.168;4.410;2024-02-26T07:44:41;0.65;;;0.60;;
57744;SDS011;58941;50.168;4.410;2024-02-26T07:47:08;0.70;;;0.70;;
57744;SDS011;58941;50.168;4.410;2024-02-26T07:49:34;1.17;;;0.80;;
57744;SDS011;58941;50.168;4.410;2024-02-26T07:51:59;0.93;;;0.80;;
57744;SDS011;58941;50.168;4.410;2024-02-26T07:54:25;0.82;;;0.80;;
57744;SDS011;58941;50.168;4.410;2024-02-26T07:56:50;0.93;;;0.82;;
57744;SDS011;58941;50.168;4.410;2024-02-26T07:59:16;1.63;;;0.80;;
57744;SDS011;58941;50.168;4.410;2024-02-26T08:01:42;1.55;;;0.63;;
57744;SDS011;58941;50.168;4.410;2024-02-26T08:04:08;1.08;;;0.63;;
57744;SDS011;58941;50.168;4.410;2024-02-26T08:06:34;0.90;;;0.70;;
57744;SDS011;58941;50.168;4.410;2024-02-26T08:08:59;1.60;;;0.77;;
57744;SDS011;58941;50.168;4.410;2024-02-26T08:11:25;1.35;;;0.85;;
57744;SDS011;58941;50.168;4.410;2024-02-26T08:13:50;1.55;;;0.75;;
57744;SDS011;58941;50.168;4.410;2024-02-26T08:16:16;0.85;;;0.77;;
57744;SDS011;58941;50.168;4.410;2024-02-26T08:18:41;1.25;;;0.70;;
57744;SDS011;58941;50.168;4.410;2024-02-26T08:21:07;1.08;;;0.75;;
57744;SDS011;58941;50.168;4.410;2024-02-26T08:23:33;0.70;;;0.60;;
57744;SDS011;58941;50.168;4.410;2024-02-26T08:25:59;1.20;;;0.70;;
57744;SDS011;58941;50.168;4.410;2024-02-26T08:28:24;0.90;;;0.68;;
57744;SDS011;58941;50.168;4.410;2024-02-26T08:30:50;0.73;;;0.70;;
57744;SDS011;58941;50.168;4.410;2024-02-26T08:33:16;1.98;;;0.73;;
57744;SDS011;58941;50.168;4.410;2024-02-26T08:35:41;1.80;;;0.70;;
57744;SDS011;58941;50.168;4.410;2024-02-26T08:38:07;0.60;;;0.60;;
57744;SDS011;58941;50.168;4.410;2024-02-26T08:40:33;1.48;;;0.70;;
57744;SDS011;58941;50.168;4.410;2024-02-26T08:42:58;0.95;;;0.80;;
57744;SDS011;58941;50.168;4.410;2024-02-26T08:45:24;0.77;;;0.73;;
57744;SDS011;58941;50.168;4.410;2024-02-26T08:47:52;1.35;;;0.80;;
57744;SDS011;58941;50.168;4.410;2024-02-26T08:50:17;0.93;;;0.70;;
57744;SDS011;58941;50.168;4.410;2024-02-26T08:52:43;0.70;;;0.60;;
57744;SDS011;58941;50.168;4.410;2024-02-26T08:55:09;1.10;;;0.98;;
57744;SDS011;58941;50.168;4.410;2024-02-26T08:57:34;1.23;;;0.60;;
57744;SDS011;58941;50.168;4.410;2024-02-26T09:00:00;1.25;;;0.70;;
57744;SDS011;58941;50.168;4.410;2024-02-26T09:02:26;1.10;;;0.60;;
57744;SDS011;58941;50.168;4.410;2024-02-26T09:04:51;1.23;;;0.80;;
57744;SDS011;58941;50.168;4.410;2024-02-26T09:07:20;0.75;;;0.70;;
57744;SDS011;58941;50.168;4.410;2024-02-26T09:09:46;1.15;;;0.88;;
57744;SDS011;58941;50.168;4.410;2024-02-26T09:12:11;1.30;;;0.65;;
57744;SDS011;58941;50.168;4.410;2024-02-26T09:14:37;0.80;;;0.70;;
57744;SDS011;58941;50.168;4.410;2024-02-26T09:17:03;1.17;;;0.80;;
57744;SDS011;58941;50.168;4.410;2024-02-26T09:19:28;0.73;;;0.60;;
57744;SDS011;58941;50.168;4.410;2024-02-26T09:21:54;1.13;;;0.70;;
57744;SDS011;58941;50.168;4.410;2024-02-26T09:24:26;0.60;;;0.60;;
57744;SDS011;58941;50.168;4.410;2024-02-26T09:26:52;0.80;;;0.70;;
57744;SDS011;58941;50.168;4.410;2024-02-26T09:29:18;1.63;;;0.90;;
57744;SDS011;58941;50.168;4.410;2024-02-26T09:31:44;0.95;;;0.70;;
57744;SDS011;58941;50.168;4.410;2024-02-26T09:34:13;1.00;;;0.75;;
57744;SDS011;58941;50.168;4.410;2024-02-26T09:36:39;1.10;;;0.70;;
57744;SDS011;58941;50.168;4.410;2024-02-26T09:39:05;1.13;;;0.80;;
57744;SDS011;58941;50.168;4.410;2024-02-26T09:41:32;2.28;;;0.85;;
57744;SDS011;58941;50.168;4.410;2024-02-26T09:43:58;1.02;;;0.82;;
57744;SDS011;58941;50.168;4.410;2024-02-26T09:46:25;0.75;;;0.70;;
57744;SDS011;58941;50.168;4.410;2024-02-26T09:48:51;2.15;;;0.70;;
57744;SDS011;58941;50.168;4.410;2024-02-26T09:51:16;1.20;;;0.75;;
57744;SDS011;58941;50.168;4.410;2024-02-26T09:53:43;1.42;;;0.60;;
57744;SDS011;58941;50.168;4.410;2024-02-26T09:56:13;1.38;;;0.70;;
57744;SDS011;58941;50.168;4.410;2024-02-26T09:58:40;1.23;;;0.80;;
57744;SDS011;58941;50.168;4.410;2024-02-26T10:01:11;0.65;;;0.65;;
57744;SDS011;58941;50.168;4.410;2024-02-26T10:03:43;0.88;;;0.80;;
57744;SDS011;58941;50.168;4.410;2024-02-26T10:06:10;0.90;;;0.77;;
57744;SDS011;58941;50.168;4.410;2024-02-26T10:08:36;0.73;;;0.60;;
57744;SDS011;58941;50.168;4.410;2024-02-26T10:11:02;0.82;;;0.80;;
57744;SDS011;58941;50.168;4.410;2024-02-26T10:13:28;0.60;;;0.60;;
57744;SDS011;58941;50.168;4.410;2024-02-26T10:15:53;1.88;;;0.90;;
57744;SDS011;58941;50.168;4.410;2024-02-26T10:18:19;0.73;;;0.73;;
57744;SDS011;58941;50.168;4.410;2024-02-26T10:21:02;1.45;;;0.60;;
57744;SDS011;58941;50.168;4.410;2024-02-26T10:23:28;1.05;;;0.85;;
57744;SDS011;58941;50.168;4.410;2024-02-26T10:25:54;1.02;;;0.80;;
57744;SDS011;58941;50.168;4.410;2024-02-26T10:28:23;1.58;;;0.80;;
57744;SDS011;58941;50.168;4.410;2024-02-26T10:30:49;1.40;;;0.82;;
57744;SDS011;58941;50.168;4.410;2024-02-26T10:33:15;1.27;;;0.80;;
57744;SDS011;58941;50.168;4.410;2024-02-26T10:35:47;1.10;;;0.80;;
57744;SDS011;58941;50.168;4.410;2024-02-26T10:38:13;0.82;;;0.80;;
57744;SDS011;58941;50.168;4.410;2024-02-26T10:40:42;1.20;;;0.98;;
57744;SDS011;58941;50.168;4.410;2024-02-26T10:43:08;2.13;;;0.88;;
57744;SDS011;58941;50.168;4.410;2024-02-26T10:45:36;1.00;;;0.90;;
57744;SDS011;58941;50.168;4.410;2024-02-26T10:48:02;1.15;;;0.73;;
57744;SDS011;58941;50.168;4.410;2024-02-26T10:50:28;1.88;;;0.75;;
57744;SDS011;58941;50.168;4.410;2024-02-26T10:52:54;1.33;;;0.80;;
57744;SDS011;58941;50.168;4.410;2024-02-26T10:55:20;1.98;;;0.93;;
57744;SDS011;58941;50.168;4.410;2024-02-26T10:57:48;1.02;;;0.80;;
57744;SDS011;58941;50.168;4.410;2024-02-26T11:00:16;1.10;;;0.88;;
57744;SDS011;58941;50.168;4.410;2024-02-26T11:02:44;1.45;;;0.90;;
57744;SDS011;58941;50.168;4.410;2024-02-26T11:05:12;0.90;;;0.80;;
57744;SDS011;58941;50.168;4.410;2024-02-26T11:07:38;1.50;;;0.73;;
57744;SDS011;58941;50.168;4.410;2024-02-26T11:10:05;3.60;;;1.00;;
57744;SDS011;58941;50.168;4.410;2024-02-26T11:12:34;1.20;;;1.10;;
57744;SDS011;58941;50.168;4.410;2024-02-26T11:15:03;1.75;;;0.85;;
57744;SDS011;58941;50.168;4.410;2024-02-26T11:17:30;2.17;;;0.93;;
57744;SDS011;58941;50.168;4.410;2024-02-26T11:19:57;1.50;;;0.88;;
57744;SDS011;58941;50.168;4.410;2024-02-26T11:22:25;2.05;;;1.10;;
57744;SDS011;58941;50.168;4.410;2024-02-26T11:24:54;2.17;;;1.30;;
57744;SDS011;58941;50.168;4.410;2024-02-26T11:27:30;1.10;;;1.00;;
57744;SDS011;58941;50.168;4.410;2024-02-26T11:30:03;1.98;;;1.20;;
57744;SDS011;58941;50.168;4.410;2024-02-26T11:32:30;3.10;;;1.15;;
57744;SDS011;58941;50.168;4.410;2024-02-26T11:34:57;2.15;;;0.90;;
57744;SDS011;58941;50.168;4.410;2024-02-26T11:37:23;1.60;;;0.98;;
57744;SDS011;58941;50.168;4.410;2024-02-26T11:39:51;1.25;;;0.80;;
57744;SDS011;58941;50.168;4.410;2024-02-26T11:42:22;3.25;;;1.20;;
57744;SDS011;58941;50.168;4.410;2024-02-26T11:44:50;1.63;;;0.90;;
57744;SDS011;58941;50.168;4.410;2024-02-26T11:47:20;3.20;;;1.30;;
57744;SDS011;58941;50.168;4.410;2024-02-26T11:49:46;0.98;;;0.82;;
57744;SDS011;58941;50.168;4.410;2024-02-26T11:52:13;2.15;;;0.95;;
57744;SDS011;58941;50.168;4.410;2024-02-26T11:54:50;1.55;;;1.00;;
57744;SDS011;58941;50.168;4.410;2024-02-26T11:57:39;1.85;;;1.13;;
57744;SDS011;58941;50.168;4.410;2024-02-26T12:00:11;2.17;;;1.00;;
57744;SDS011;58941;50.168;4.410;2024-02-26T12:02:38;1.58;;;0.90;;
57744;SDS011;58941;50.168;4.410;2024-02-26T12:05:08;2.38;;;0.90;;
57744;SDS011;58941;50.168;4.410;2024-02-26T12:07:35;1.55;;;1.00;;
57744;SDS011;58941;50.168;4.410;2024-02-26T12:12:45;0.95;;;0.85;;
57744;SDS011;58941;50.168;4.410;2024-02-26T12:15:11;1.73;;;1.00;;
57744;SDS011;58941;50.168;4.410;2024-02-26T12:17:41;2.00;;;1.30;;
57744;SDS011;58941;50.168;4.410;2024-02-26T12:20:13;1.65;;;1.10;;
57744;SDS011;58941;50.168;4.410;2024-02-26T12:22:41;1.95;;;1.35;;
57744;SDS011;58941;50.168;4.410;2024-02-26T12:25:09;1.52;;;0.90;;
57744;SDS011;58941;50.168;4.410;2024-02-26T12:27:37;2.10;;;1.02;;
57744;SDS011;58941;50.168;4.410;2024-02-26T12:30:04;1.25;;;1.00;;
57744;SDS011;58941;50.168;4.410;2024-02-26T12:32:32;3.05;;;1.27;;
57744;SDS011;58941;50.168;4.410;2024-02-26T12:34:58;1.85;;;1.20;;
57744;SDS011;58941;50.168;4.410;2024-02-26T12:37:26;1.80;;;1.17;;
57744;SDS011;58941;50.168;4.410;2024-02-26T12:39:53;4.05;;;1.40;;
57744;SDS011;58941;50.168;4.410;2024-02-26T12:42:19;3.47;;;2.25;;
57744;SDS011;58941;50.168;4.410;2024-02-26T12:44:46;1.80;;;1.15;;
57744;SDS011;58941;50.168;4.410;2024-02-26T12:47:13;1.75;;;1.20;;
57744;SDS011;58941;50.168;4.410;2024-02-26T12:49:42;1.50;;;1.10;;
57744;SDS011;58941;50.168;4.410;2024-02-26T12:52:11;1.52;;;1.00;;
57744;SDS011;58941;50.168;4.410;2024-02-26T12:54:40;1.23;;;1.00;;
57744;SDS011;58941;50.168;4.410;2024-02-26T12:57:08;2.58;;;1.58;;
57744;SDS011;58941;50.168;4.410;2024-02-26T12:59:37;2.38;;;1.10;;
57744;SDS011;58941;50.168;4.410;2024-02-26T13:02:20;2.50;;;1.27;;
57744;SDS011;58941;50.168;4.410;2024-02-26T13:04:51;2.75;;;1.55;;
57744;SDS011;58941;50.168;4.410;2024-02-26T13:07:47;1.60;;;1.10;;
57744;SDS011;58941;50.168;4.410;2024-02-26T13:10:25;1.83;;;1.40;;
57744;SDS011;58941;50.168;4.410;2024-02-26T13:12:51;2.53;;;1.38;;
57744;SDS011;58941;50.168;4.410;2024-02-26T13:15:19;2.75;;;1.35;;
57744;SDS011;58941;50.168;4.410;2024-02-26T13:17:46;1.50;;;1.30;;
57744;SDS011;58941;50.168;4.410;2024-02-26T13:20:13;2.67;;;1.58;;
57744;SDS011;58941;50.168;4.410;2024-02-26T13:22:40;1.23;;;1.13;;
57744;SDS011;58941;50.168;4.410;2024-02-26T13:25:06;2.05;;;1.25;;
57744;SDS011;58941;50.168;4.410;2024-02-26T13:27:34;1.65;;;1.45;;
57744;SDS011;58941;50.168;4.410;2024-02-26T13:30:04;2.58;;;1.50;;
57744;SDS011;58941;50.168;4.410;2024-02-26T13:32:34;2.35;;;1.50;;
57744;SDS011;58941;50.168;4.410;2024-02-26T13:35:04;2.00;;;1.37;;
57744;SDS011;58941;50.168;4.410;2024-02-26T13:37:30;2.08;;;1.20;;
57744;SDS011;58941;50.168;4.410;2024-02-26T13:39:55;2.60;;;1.20;;
57744;SDS011;58941;50.168;4.410;2024-02-26T13:42:21;1.48;;;1.30;;
57744;SDS011;58941;50.168;4.410;2024-02-26T13:44:47;2.97;;;1.30;;
57744;SDS011;58941;50.168;4.410;2024-02-26T13:47:12;1.73;;;1.40;;
57744;SDS011;58941;50.168;4.410;2024-02-26T13:49:38;1.67;;;1.23;;
57744;SDS011;58941;50.168;4.410;2024-02-26T13:52:04;1.40;;;0.93;;
57744;SDS011;58941;50.168;4.410;2024-02-26T13:54:30;2.22;;;1.27;;
57744;SDS011;58941;50.168;4.410;2024-02-26T13:56:56;2.72;;;1.25;;
57744;SDS011;58941;50.168;4.410;2024-02-26T13:59:22;1.45;;;1.17;;
57744;SDS011;58941;50.168;4.410;2024-02-26T14:01:48;1.98;;;1.27;;
57744;SDS011;58941;50.168;4.410;2024-02-26T14:04:14;1.48;;;1.17;;
57744;SDS011;58941;50.168;4.410;2024-02-26T14:06:40;1.80;;;1.30;;
57744;SDS011;58941;50.168;4.410;2024-02-26T14:09:05;1.40;;;1.25;;
57744;SDS011;58941;50.168;4.410;2024-02-26T14:11:31;1.40;;;1.30;;
57744;SDS011;58941;50.168;4.410;2024-02-26T14:13:56;1.55;;;1.20;;
57744;SDS011;58941;50.168;4.410;2024-02-26T14:16:22;1.35;;;1.25;;
57744;SDS011;58941;50.168;4.410;2024-02-26T14:18:48;1.88;;;1.17;;
57744;SDS011;58941;50.168;4.410;2024-02-26T14:21:14;2.17;;;1.30;;
57744;SDS011;58941;50.168;4.410;2024-02-26T14:23:41;1.83;;;1.20;;
57744;SDS011;58941;50.168;4.410;2024-02-26T14:26:10;1.92;;;1.23;;
57744;SDS011;58941;50.168;4.410;2024-02-26T14:28:36;1.52;;;1.20;;
57744;SDS011;58941;50.168;4.410;2024-02-26T14:31:02;1.58;;;1.10;;
57744;SDS011;58941;50.168;4.410;2024-02-26T14:33:29;1.40;;;1.20;;
57744;SDS011;58941;50.168;4.410;2024-02-26T14:35:56;1.83;;;1.27;;
57744;SDS011;58941;50.168;4.410;2024-02-26T14:38:24;2.08;;;1.20;;
57744;SDS011;58941;50.168;4.410;2024-02-26T14:40:52;1.73;;;1.20;;
57744;SDS011;58941;50.168;4.410;2024-02-26T14:43:18;1.70;;;1.20;;
57744;SDS011;58941;50.168;4.410;2024-02-26T14:45:44;1.45;;;1.05;;